Time;durP1;ratioP1;P1;durP2;ratioP2;P2;SDS_P1;SDS_P2;PMS_P1;PMS_P2;Temp;Humidity;BMP_temperature;BMP_pressure;BME280_temperature;BME280_humidity;BME280_pressure;Samples;Min_cycle;Max_cycle;Signal;HPM_P1;HPM_P2
2021/08/23 00:00:07;;;;;;;;;;;;;;;19.73;100.00;100151.53;5079455;28;20290;-78
2021/08/23 00:02:35;;;;;;;;;;;;;;;19.72;100.00;100149.16;5097006;28;19924;-78
2021/08/23 00:05:02;;;;;;;;;;;;;;;19.67;100.00;100150.53;5079105;28;19959;-77
2021/08/23 00:07:29;;;;;;;;;;;;;;;19.64;100.00;100150.69;5096619;28;19924;-78
2021/08/23 00:09:57;;;;;;;;;;;;;;;19.72;100.00;100151.22;5097078;28;19924;-77
2021/08/23 00:12:27;;;;;;;;;;;;;;;19.63;100.00;100157.59;5087010;28;19924;-78
2021/08/23 00:14:54;;;;;;;;;;;;;;;19.79;100.00;100150.97;5058900;28;20291;-78
2021/08/23 00:17:21;;;;;;;;;;;;;;;19.73;100.00;100156.44;5076544;28;19936;-78
2021/08/23 00:19:48;;;;;;;;;;;;;;;19.72;100.00;100156.91;5076389;28;19932;-78
2021/08/23 00:22:29;;;;;;;;;;;;;;;19.79;100.00;100153.78;5076233;28;20376;-77
2021/08/23 00:24:56;;;;;;;;;;;;;;;19.69;100.00;100153.72;5076289;28;19924;-77
2021/08/23 00:27:25;;;;;;;;;;;;;;;19.65;100.00;100155.91;5057800;28;19929;-77
2021/08/23 00:30:07;;;;;;;;;;;;;;;19.68;100.00;100159.84;5046024;28;19931;-77
2021/08/23 00:32:34;;;;;;;;;;;;;;;19.74;100.00;100169.34;5058340;28;19951;-78
2021/08/23 00:35:01;;;;;;;;;;;;;;;19.75;100.00;100164.47;5075869;28;20422;-78
2021/08/23 00:37:28;;;;;;;;;;;;;;;19.80;100.00;100161.03;5038353;28;19925;-77
2021/08/23 00:39:55;;;;;;;;;;;;;;;19.56;100.00;100158.66;5069420;28;19929;-78
2021/08/23 00:42:22;;;;;;;;;;;;;;;19.42;100.00;100159.13;5025547;28;19931;-77
2021/08/23 00:44:49;;;;;;;;;;;;;;;19.38;100.00;100155.63;5075906;28;19970;-78
2021/08/23 00:47:16;;;;;;;;;;;;;;;19.46;100.00;100156.97;5058232;28;19931;-78
2021/08/23 00:49:44;;;;;;;;;;;;;;;19.34;100.00;100159.84;5075812;28;20031;-77
2021/08/23 00:52:11;;;;;;;;;;;;;;;19.35;100.00;100159.38;5058021;28;19924;-77
2021/08/23 00:54:38;;;;;;;;;;;;;;;19.08;100.00;100166.75;5075928;28;19925;-78
2021/08/23 00:57:05;;;;;;;;;;;;;;;19.26;100.00;100156.44;5075819;28;20013;-78
2021/08/23 00:59:34;;;;;;;;;;;;;;;19.33;100.00;100158.25;5075793;28;19959;-78
2021/08/23 01:02:15;;;;;;;;;;;;;;;19.08;100.00;100166.75;5075563;28;19967;-78
2021/08/23 01:04:52;;;;;;;;;;;;;;;18.99;100.00;100164.59;5057307;28;20000;-78
2021/08/23 01:07:21;;;;;;;;;;;;;;;18.92;100.00;100170.50;5075719;28;19924;-77
2021/08/23 01:09:52;;;;;;;;;;;;;;;18.88;100.00;100169.03;5057938;28;20061;-77
2021/08/23 01:12:19;;;;;;;;;;;;;;;18.87;100.00;100173.91;5046441;28;19928;-78
2021/08/23 01:14:46;;;;;;;;;;;;;;;18.80;100.00;100173.34;5074106;28;20006;-78
2021/08/23 01:17:14;;;;;;;;;;;;;;;19.11;100.00;100178.00;5075591;28;19925;-77
2021/08/23 01:19:45;;;;;;;;;;;;;;;19.21;100.00;100176.84;5075101;28;19932;-78
2021/08/23 01:22:13;;;;;;;;;;;;;;;19.28;100.00;100181.50;5074347;28;19925;-78
2021/08/23 01:24:41;;;;;;;;;;;;;;;19.31;100.00;100180.59;5074000;28;19931;-78
2021/08/23 01:27:10;;;;;;;;;;;;;;;19.36;100.00;100175.13;5075300;28;19947;-78
2021/08/23 01:30:00;;;;;;;;;;;;;;;19.39;100.00;100182.72;5075151;28;19986;-78
2021/08/23 01:32:28;;;;;;;;;;;;;;;19.15;100.00;100184.31;5065025;28;20287;-78
2021/08/23 01:34:57;;;;;;;;;;;;;;;19.18;100.00;100188.28;5074848;28;19960;-78
2021/08/23 01:37:24;;;;;;;;;;;;;;;19.11;100.00;100185.69;5074057;28;19932;-78
2021/08/23 01:39:52;;;;;;;;;;;;;;;19.03;100.00;100187.97;5073580;28;20371;-78
2021/08/23 01:42:19;;;;;;;;;;;;;;;19.08;100.00;100184.56;5074034;28;19925;-78
2021/08/23 01:44:46;;;;;;;;;;;;;;;18.70;100.00;100183.75;5075163;28;19931;-78
2021/08/23 01:47:13;;;;;;;;;;;;;;;18.41;100.00;100185.06;5053623;28;20323;-77
2021/08/23 01:49:41;;;;;;;;;;;;;;;18.63;100.00;100181.13;5066464;28;19930;-78
2021/08/23 01:52:09;;;;;;;;;;;;;;;18.80;100.00;100185.47;5073717;28;19924;-78
2021/08/23 01:54:36;;;;;;;;;;;;;;;18.84;100.00;100197.47;5073698;28;19925;-77
2021/08/23 01:57:03;;;;;;;;;;;;;;;18.74;100.00;100198.59;5074807;28;20015;-78
2021/08/23 01:59:30;;;;;;;;;;;;;;;18.43;100.00;100200.38;5073481;28;19935;-78
2021/08/23 02:01:57;;;;;;;;;;;;;;;18.58;100.00;100212.84;5072975;28;19924;-78
2021/08/23 02:04:24;;;;;;;;;;;;;;;18.75;100.00;100207.88;5073344;28;19928;-78
2021/08/23 02:06:52;;;;;;;;;;;;;;;18.46;100.00;100204.34;5073685;28;19931;-78
2021/08/23 02:09:19;;;;;;;;;;;;;;;18.17;100.00;100203.53;5073388;28;19924;-77
2021/08/23 02:11:46;;;;;;;;;;;;;;;18.41;100.00;100208.50;5078661;28;19977;-78
2021/08/23 02:14:13;;;;;;;;;;;;;;;18.60;100.00;100207.50;5094740;28;19930;-77
2021/08/23 02:16:41;;;;;;;;;;;;;;;18.46;100.00;100210.78;5075581;28;19967;-78
2021/08/23 02:19:08;;;;;;;;;;;;;;;18.30;100.00;100219.31;5058428;28;20441;-78
2021/08/23 02:21:48;;;;;;;;;;;;;;;18.04;100.00;100211.19;5093299;28;20359;-78
2021/08/23 02:24:16;;;;;;;;;;;;;;;18.26;100.00;100215.81;5076262;28;19924;-77
2021/08/23 02:26:44;;;;;;;;;;;;;;;18.46;100.00;100222.13;5094790;28;19977;-78
2021/08/23 02:29:11;;;;;;;;;;;;;;;18.55;100.00;100218.63;5076245;28;19928;-78
2021/08/23 02:31:38;;;;;;;;;;;;;;;18.68;100.00;100217.38;5094073;28;19924;-78
2021/08/23 02:34:05;;;;;;;;;;;;;;;18.95;100.00;100216.94;5088255;28;20397;-78
2021/08/23 02:36:34;;;;;;;;;;;;;;;18.91;100.00;100219.91;5090019;28;19929;-78
2021/08/23 02:39:01;;;;;;;;;;;;;;;18.88;100.00;100217.97;5073117;28;19928;-78
2021/08/23 02:41:28;;;;;;;;;;;;;;;18.95;100.00;100220.56;5091183;28;19931;-78
2021/08/23 02:43:55;;;;;;;;;;;;;;;18.90;100.00;100221.13;5093770;28;19924;-78
2021/08/23 02:46:22;;;;;;;;;;;;;;;18.86;100.00;100206.31;5073890;28;19925;-78
2021/08/23 02:48:49;;;;;;;;;;;;;;;18.85;100.00;100215.25;5094017;28;19981;-77
2021/08/23 02:51:17;;;;;;;;;;;;;;;18.86;100.00;100216.81;5076151;28;19924;-78
2021/08/23 02:53:43;;;;;;;;;;;;;;;18.72;100.00;100220.13;5076072;28;20368;-78
2021/08/23 02:56:11;;;;;;;;;;;;;;;18.90;100.00;100218.31;5088065;28;20460;-78
2021/08/23 02:58:38;;;;;;;;;;;;;;;18.92;100.00;100232.81;5046247;28;19954;-78
2021/08/23 03:01:05;;;;;;;;;;;;;;;18.92;100.00;100224.31;5093747;28;19924;-78
2021/08/23 03:03:34;;;;;;;;;;;;;;;18.99;100.00;100220.47;5075776;28;19955;-78
2021/08/23 03:06:01;;;;;;;;;;;;;;;18.80;100.00;100222.28;5075781;28;20450;-78
2021/08/23 03:08:28;;;;;;;;;;;;;;;18.87;100.00;100218.44;5075732;28;20041;-78
2021/08/23 03:11:04;;;;;;;;;;;;;;;18.75;100.00;100222.06;5042595;28;19924;-78
2021/08/23 03:13:31;;;;;;;;;;;;;;;18.92;100.00;100226.34;5075815;28;20264;-78
2021/08/23 03:15:58;;;;;;;;;;;;;;;18.85;100.00;100221.72;5093366;28;20292;-78
2021/08/23 03:18:25;;;;;;;;;;;;;;;19.06;100.00;100215.38;5093601;28;20519;-78
2021/08/23 03:20:52;;;;;;;;;;;;;;;19.10;100.00;100220.94;5075791;28;20460;-78
2021/08/23 03:23:38;;;;;;;;;;;;;;;19.03;100.00;100218.31;5111428;27;19920;-78
2021/08/23 03:26:06;;;;;;;;;;;;;;;19.09;100.00;100219.31;5083298;28;20402;-78
2021/08/23 03:28:33;;;;;;;;;;;;;;;19.09;100.00;100220.13;5121982;27;20321;-78
2021/08/23 03:31:01;;;;;;;;;;;;;;;19.11;100.00;100223.31;5100578;28;20383;-78
2021/08/23 03:33:28;;;;;;;;;;;;;;;19.09;100.00;100225.81;5104177;28;19931;-78
2021/08/23 03:35:55;;;;;;;;;;;;;;;19.05;100.00;100227.94;5106647;28;20419;-78
2021/08/23 03:38:22;;;;;;;;;;;;;;;18.97;100.00;100223.75;5091105;28;20355;-77
2021/08/23 03:40:49;;;;;;;;;;;;;;;18.06;100.00;100232.13;5108353;28;20306;-78
2021/08/23 03:43:18;;;;;;;;;;;;;;;18.35;100.00;100232.13;5093236;28;19924;-78
2021/08/23 03:45:45;;;;;;;;;;;;;;;18.47;100.00;100234.22;5111146;28;20283;-78
2021/08/23 03:48:12;;;;;;;;;;;;;;;18.62;100.00;100236.19;5111042;28;20415;-77
2021/08/23 03:50:39;;;;;;;;;;;;;;;18.75;100.00;100239.81;5111165;28;19928;-78
2021/08/23 03:53:06;;;;;;;;;;;;;;;18.61;100.00;100237.44;5120314;28;19970;-78
2021/08/23 03:55:33;;;;;;;;;;;;;;;18.69;100.00;100249.34;5072724;28;19925;-78
2021/08/23 03:58:01;;;;;;;;;;;;;;;18.87;100.00;100250.34;5109448;28;19981;-78
2021/08/23 04:00:28;;;;;;;;;;;;;;;18.89;100.00;100245.03;5110865;28;20386;-78
2021/08/23 04:02:55;;;;;;;;;;;;;;;18.74;100.00;100252.38;5110695;28;20367;-78
2021/08/23 04:05:22;;;;;;;;;;;;;;;18.91;100.00;100247.41;5076069;28;19928;-77
2021/08/23 04:07:49;;;;;;;;;;;;;;;18.73;100.00;100247.97;5110943;28;19950;-78
2021/08/23 04:10:16;;;;;;;;;;;;;;;18.63;100.00;100248.31;5092730;28;20022;-78
2021/08/23 04:12:48;;;;;;;;;;;;;;;18.80;100.00;100244.13;5110314;28;20380;-78
2021/08/23 04:15:17;;;;;;;;;;;;;;;18.78;100.00;100252.28;5126060;28;19934;-78
2021/08/23 04:17:44;;;;;;;;;;;;;;;18.88;100.00;100246.31;5110879;28;19924;-78
2021/08/23 04:20:21;;;;;;;;;;;;;;;18.90;100.00;100245.84;5103856;28;19936;-78
2021/08/23 04:22:48;;;;;;;;;;;;;;;18.62;100.00;100258.81;5051561;28;19931;-78
2021/08/23 04:25:20;;;;;;;;;;;;;;;18.24;100.00;100254.25;5051213;28;19925;-78
2021/08/23 04:27:48;;;;;;;;;;;;;;;17.87;100.00;100242.31;5065215;28;19959;-78
2021/08/23 04:30:25;;;;;;;;;;;;;;;18.37;100.00;100250.28;5050202;28;19952;-78
2021/08/23 04:32:52;;;;;;;;;;;;;;;18.48;100.00;100259.22;5067330;28;19925;-78
2021/08/23 04:35:20;;;;;;;;;;;;;;;18.58;100.00;100258.16;5056134;28;19935;-78
2021/08/23 04:37:48;;;;;;;;;;;;;;;18.64;100.00;100255.53;5055186;28;19925;-78
2021/08/23 04:40:15;;;;;;;;;;;;;;;18.66;100.00;100262.34;5056425;28;19947;-78
2021/08/23 04:42:42;;;;;;;;;;;;;;;18.64;100.00;100264.84;5049889;28;19979;-78
2021/08/23 04:45:09;;;;;;;;;;;;;;;18.15;100.00;100266.22;5062891;28;20014;-78
2021/08/23 04:47:36;;;;;;;;;;;;;;;18.53;100.00;100275.66;5040966;28;20315;-78
2021/08/23 04:50:05;;;;;;;;;;;;;;;18.63;100.00;100271.72;5087774;28;19925;-78
2021/08/23 04:52:32;;;;;;;;;;;;;;;18.60;100.00;100269.78;5054429;28;19928;-78
2021/08/23 04:55:00;;;;;;;;;;;;;;;18.22;100.00;100274.50;5068172;28;20390;-78
2021/08/23 04:57:27;;;;;;;;;;;;;;;18.24;100.00;100283.34;5049873;28;20472;-78
2021/08/23 04:59:54;;;;;;;;;;;;;;;18.56;100.00;100283.25;5048620;28;19925;-78
2021/08/23 05:02:21;;;;;;;;;;;;;;;18.64;100.00;100279.00;5048263;28;19929;-78
2021/08/23 05:04:48;;;;;;;;;;;;;;;18.69;100.00;100278.41;5055920;28;19972;-78
2021/08/23 05:07:16;;;;;;;;;;;;;;;18.54;100.00;100284.97;5054758;28;20010;-78
2021/08/23 05:09:43;;;;;;;;;;;;;;;18.73;100.00;100276.28;5055421;28;19960;-78
2021/08/23 05:12:10;;;;;;;;;;;;;;;18.78;100.00;100284.22;5055469;28;20013;-78
2021/08/23 05:14:37;;;;;;;;;;;;;;;18.80;100.00;100293.06;5054352;28;20014;-78
2021/08/23 05:17:04;;;;;;;;;;;;;;;18.70;100.00;100290.53;5038015;28;20307;-78
2021/08/23 05:19:31;;;;;;;;;;;;;;;18.74;100.00;100291.22;5041771;28;20019;-78
2021/08/23 05:21:58;;;;;;;;;;;;;;;18.56;100.00;100286.09;5028354;28;19932;-78
2021/08/23 05:24:25;;;;;;;;;;;;;;;18.66;100.00;100292.69;5021195;28;19932;-78
2021/08/23 05:26:52;;;;;;;;;;;;;;;18.77;100.00;100287.50;5088958;28;19924;-78
2021/08/23 05:29:20;;;;;;;;;;;;;;;18.36;100.00;100291.09;5097863;28;19930;-78
2021/08/23 05:31:47;;;;;;;;;;;;;;;18.68;100.00;100304.34;5095418;28;19928;-78
2021/08/23 05:34:14;;;;;;;;;;;;;;;18.66;100.00;100304.78;5060692;28;19973;-78
2021/08/23 05:36:41;;;;;;;;;;;;;;;18.71;100.00;100303.44;5095436;28;19924;-78
2021/08/23 05:39:08;;;;;;;;;;;;;;;18.67;100.00;100303.56;5077288;28;19924;-78
2021/08/23 05:41:35;;;;;;;;;;;;;;;18.56;100.00;100300.25;5095324;28;19928;-78
2021/08/23 05:44:03;;;;;;;;;;;;;;;18.42;100.00;100311.97;5093491;28;19924;-78
2021/08/23 05:46:29;;;;;;;;;;;;;;;18.27;100.00;100307.91;5074152;28;19925;-78
2021/08/23 05:48:56;;;;;;;;;;;;;;;18.49;100.00;100310.97;5059902;28;20327;-78
2021/08/23 05:51:23;;;;;;;;;;;;;;;18.48;100.00;100315.84;5032955;28;20022;-78
2021/08/23 05:53:50;;;;;;;;;;;;;;;18.48;100.00;100309.41;5060445;28;20256;-78
2021/08/23 05:56:17;;;;;;;;;;;;;;;18.62;100.00;100311.81;5094893;28;19924;-78
2021/08/23 05:58:46;;;;;;;;;;;;;;;18.45;100.00;100310.28;5066428;28;19924;-78
2021/08/23 06:01:13;;;;;;;;;;;;;;;18.65;100.00;100320.19;5090747;28;19924;-78
2021/08/23 06:03:40;;;;;;;;;;;;;;;18.55;100.00;100312.81;5094799;28;20061;-78
2021/08/23 06:06:08;;;;;;;;;;;;;;;18.71;100.00;100312.75;5076759;28;19924;-78
2021/08/23 06:08:35;;;;;;;;;;;;;;;18.54;100.00;100311.22;5076628;28;19928;-78
2021/08/23 06:11:02;;;;;;;;;;;;;;;18.58;100.00;100309.09;5076844;28;19928;-78
2021/08/23 06:13:30;;;;;;;;;;;;;;;18.64;100.00;100315.78;5060184;28;20010;-78
2021/08/23 06:15:57;;;;;;;;;;;;;;;18.45;100.00;100315.94;5076604;28;20260;-78
2021/08/23 06:18:24;;;;;;;;;;;;;;;18.43;100.00;100326.91;5076543;28;19924;-78
2021/08/23 06:20:51;;;;;;;;;;;;;;;18.16;100.00;100327.19;5110096;28;19931;-78
2021/08/23 06:23:18;;;;;;;;;;;;;;;18.57;100.00;100323.69;5079676;28;19975;-78
2021/08/23 06:25:45;;;;;;;;;;;;;;;18.59;100.00;100326.84;5094445;28;20371;-78
2021/08/23 06:28:13;;;;;;;;;;;;;;;18.56;100.00;100325.72;5076275;28;19946;-80
2021/08/23 06:30:40;;;;;;;;;;;;;;;18.64;100.00;100329.16;5062163;28;19928;-80
2021/08/23 06:33:07;;;;;;;;;;;;;;;18.52;100.00;100333.53;5094222;28;20411;-78
2021/08/23 06:35:34;;;;;;;;;;;;;;;18.71;100.00;100335.41;5094204;28;19966;-78
2021/08/23 06:38:01;;;;;;;;;;;;;;;18.26;100.00;100334.63;5109524;28;19985;-79
2021/08/23 06:40:28;;;;;;;;;;;;;;;18.57;100.00;100343.50;5109647;28;19924;-79
2021/08/23 06:42:56;;;;;;;;;;;;;;;18.48;100.00;100341.31;5054566;28;20015;-79
2021/08/23 06:45:23;;;;;;;;;;;;;;;18.33;100.00;100348.56;5058042;28;19924;-80
2021/08/23 06:47:51;;;;;;;;;;;;;;;18.81;100.00;100345.59;5058123;28;19928;-79
2021/08/23 06:50:18;;;;;;;;;;;;;;;18.62;100.00;100349.41;5084942;28;20428;-80
2021/08/23 06:52:45;;;;;;;;;;;;;;;18.42;100.00;100345.91;5059646;28;19924;-79
2021/08/23 06:55:12;;;;;;;;;;;;;;;18.73;100.00;100354.75;5063938;28;19929;-80
2021/08/23 06:57:39;;;;;;;;;;;;;;;19.65;100.00;100345.88;5059956;28;19925;-79
2021/08/23 07:00:06;;;;;;;;;;;;;;;19.92;100.00;100344.59;5081584;28;19924;-80
2021/08/23 07:02:33;;;;;;;;;;;;;;;21.90;100.00;100342.38;5038934;28;20382;-78
2021/08/23 07:05:00;;;;;;;;;;;;;;;22.54;100.00;100318.44;5067881;28;20366;-80
2021/08/23 07:07:30;;;;;;;;;;;;;;;24.17;100.00;100318.72;5066786;28;20806;-82
2021/08/23 07:09:57;;;;;;;;;;;;;;;23.95;100.00;100310.44;5074468;28;19930;-81
2021/08/23 07:12:24;;;;;;;;;;;;;;;25.02;100.00;100306.38;5081059;28;19924;-82
2021/08/23 07:14:51;;;;;;;;;;;;;;;24.69;100.00;100292.25;5072573;28;19931;-81
2021/08/23 07:17:18;;;;;;;;;;;;;;;25.87;100.00;100286.72;5065576;28;19989;-81
2021/08/23 07:19:45;;;;;;;;;;;;;;;25.47;100.00;100286.66;5041789;28;19924;-83
2021/08/23 07:22:22;;;;;;;;;;;;;;;25.53;100.00;100284.66;5055395;28;19970;-82
2021/08/23 07:24:49;;;;;;;;;;;;;;;23.93;100.00;100287.25;5057471;28;19925;-82
2021/08/23 07:27:17;;;;;;;;;;;;;;;22.88;100.00;100301.81;5086240;28;19924;-82
2021/08/23 07:29:48;;;;;;;;;;;;;;;23.76;100.00;100305.28;5077721;28;20349;-82
2021/08/23 07:32:15;;;;;;;;;;;;;;;24.77;100.00;100294.25;5089020;28;20050;-82
2021/08/23 07:34:43;;;;;;;;;;;;;;;23.74;100.00;100294.38;5048739;28;19931;-81
2021/08/23 07:37:13;;;;;;;;;;;;;;;25.24;100.00;100301.84;5071210;28;19951;-81
2021/08/23 07:39:41;;;;;;;;;;;;;;;24.78;100.00;100290.09;5071712;28;20276;-81
2021/08/23 07:42:09;;;;;;;;;;;;;;;24.13;100.00;100289.53;5055217;28;19974;-81
2021/08/23 07:44:36;;;;;;;;;;;;;;;24.22;100.00;100298.81;5076647;28;19931;-81
2021/08/23 07:47:05;;;;;;;;;;;;;;;22.63;100.00;100307.03;5056629;28;19924;-79
2021/08/23 07:49:32;;;;;;;;;;;;;;;22.17;100.00;100308.28;5075161;28;19925;-80
2021/08/23 07:51:59;;;;;;;;;;;;;;;22.27;100.00;100322.06;5073375;28;20023;-80
2021/08/23 07:54:27;;;;;;;;;;;;;;;23.33;100.00;100312.31;5073648;28;20051;-77
2021/08/23 07:56:54;;;;;;;;;;;;;;;22.52;100.00;100316.06;5072404;28;20379;-78
2021/08/23 07:59:21;;;;;;;;;;;;;;;22.64;100.00;100315.09;5076611;28;19935;-78
2021/08/23 08:01:49;;;;;;;;;;;;;;;21.66;100.00;100327.88;5078097;28;20058;-78
2021/08/23 08:04:16;;;;;;;;;;;;;;;21.37;100.00;100333.16;5077889;28;19925;-78
2021/08/23 08:06:44;;;;;;;;;;;;;;;20.73;100.00;100334.00;5068052;28;19929;-79
2021/08/23 08:09:11;;;;;;;;;;;;;;;20.29;100.00;100347.34;5060578;28;19932;-79
2021/08/23 08:11:39;;;;;;;;;;;;;;;20.59;100.00;100348.72;5077537;28;19928;-79
2021/08/23 08:14:06;;;;;;;;;;;;;;;20.77;100.00;100343.16;5095812;28;19932;-79
2021/08/23 08:16:35;;;;;;;;;;;;;;;21.54;100.00;100350.78;5087421;28;19931;-78
2021/08/23 08:19:05;;;;;;;;;;;;;;;21.63;100.00;100336.59;5087752;28;20343;-78
2021/08/23 08:21:35;;;;;;;;;;;;;;;21.51;100.00;100340.34;5072184;28;20007;-78
2021/08/23 08:24:04;;;;;;;;;;;;;;;21.19;100.00;100353.75;5073238;28;19929;-78
2021/08/23 08:26:31;;;;;;;;;;;;;;;21.04;100.00;100363.28;5058782;28;19928;-78
2021/08/23 08:28:59;;;;;;;;;;;;;;;21.28;100.00;100355.88;5078865;28;19924;-78
2021/08/23 08:31:26;;;;;;;;;;;;;;;20.58;100.00;100358.50;5074992;28;20368;-79
2021/08/23 08:33:53;;;;;;;;;;;;;;;20.47;100.00;100364.56;5076038;28;20303;-79
2021/08/23 08:36:21;;;;;;;;;;;;;;;20.67;100.00;100372.75;5081352;28;20282;-79
2021/08/23 08:38:48;;;;;;;;;;;;;;;20.60;100.00;100370.19;5069013;28;19982;-79
2021/08/23 08:41:16;;;;;;;;;;;;;;;21.12;100.00;100378.81;5077909;28;19928;-78
2021/08/23 08:43:43;;;;;;;;;;;;;;;21.42;100.00;100372.34;5081449;28;20019;-78
2021/08/23 08:46:11;;;;;;;;;;;;;;;21.14;100.00;100387.66;5087050;28;20332;-78
2021/08/23 08:48:38;;;;;;;;;;;;;;;20.66;100.00;100394.69;5060687;28;19950;-79
2021/08/23 08:51:06;;;;;;;;;;;;;;;20.75;100.00;100386.22;5078063;28;20402;-78
2021/08/23 08:53:35;;;;;;;;;;;;;;;20.90;100.00;100392.19;5075053;28;19924;-78
2021/08/23 08:56:04;;;;;;;;;;;;;;;21.07;100.00;100390.75;5057403;28;20059;-78
2021/08/23 08:58:33;;;;;;;;;;;;;;;21.49;100.00;100389.13;5056426;28;19931;-78
2021/08/23 09:01:02;;;;;;;;;;;;;;;21.56;100.00;100388.03;5081701;28;19929;-78
2021/08/23 09:03:30;;;;;;;;;;;;;;;21.23;100.00;100391.34;5074853;28;20343;-77
2021/08/23 09:06:00;;;;;;;;;;;;;;;21.28;100.00;100390.75;5068013;28;19947;-79
2021/08/23 09:08:29;;;;;;;;;;;;;;;20.58;100.00;100395.41;5078114;28;19928;-79
2021/08/23 09:10:56;;;;;;;;;;;;;;;21.26;100.00;100403.84;5058270;28;20031;-79
2021/08/23 09:13:24;;;;;;;;;;;;;;;21.72;100.00;100399.97;5074135;28;20792;-79
2021/08/23 09:15:53;;;;;;;;;;;;;;;22.12;100.00;100402.84;5055914;28;19924;-80
2021/08/23 09:18:21;;;;;;;;;;;;;;;21.70;100.00;100399.66;5083494;28;19931;-79
2021/08/23 09:21:03;;;;;;;;;;;;;;;21.34;100.00;100397.41;5055136;28;19963;-78
2021/08/23 09:23:38;;;;;;;;;;;;;;;21.97;100.00;100402.63;5083369;28;19924;-78
2021/08/23 09:26:06;;;;;;;;;;;;;;;22.25;100.00;100404.28;5079373;28;20026;-78
2021/08/23 09:28:33;;;;;;;;;;;;;;;21.85;100.00;100409.25;5083253;28;20015;-78
2021/08/23 09:31:01;;;;;;;;;;;;;;;21.27;100.00;100411.09;5094940;28;19930;-77
2021/08/23 09:33:29;;;;;;;;;;;;;;;21.63;100.00;100405.63;5110292;28;19970;-77
2021/08/23 09:35:56;;;;;;;;;;;;;;;22.02;100.00;100402.03;5078755;28;19928;-77
2021/08/23 09:38:23;;;;;;;;;;;;;;;22.33;100.00;100399.09;5074357;28;20405;-77
2021/08/23 09:41:01;;;;;;;;;;;;;;;22.51;100.00;100397.09;5078976;28;20041;-77
2021/08/23 09:43:30;;;;;;;;;;;;;;;21.94;100.00;100399.94;5076196;28;20430;-77
2021/08/23 09:46:02;;;;;;;;;;;;;;;22.44;100.00;100396.56;5079349;28;19963;-78
2021/08/23 09:48:29;;;;;;;;;;;;;;;22.14;100.00;100395.44;5048349;28;20296;-79
2021/08/23 09:50:56;;;;;;;;;;;;;;;22.24;100.00;100399.88;5046195;28;20296;-79
2021/08/23 09:53:23;;;;;;;;;;;;;;;22.11;100.00;100390.69;5069009;28;20369;-78
2021/08/23 09:55:52;;;;;;;;;;;;;;;21.73;100.00;100400.78;5069939;28;20283;-78
2021/08/23 09:58:19;;;;;;;;;;;;;;;21.57;100.00;100401.81;5082041;28;20093;-78
2021/08/23 10:00:46;;;;;;;;;;;;;;;21.58;100.00;100397.72;5078765;28;20019;-78
2021/08/23 10:03:14;;;;;;;;;;;;;;;21.19;100.00;100404.09;5082849;28;19924;-78
2021/08/23 10:05:43;;;;;;;;;;;;;;;21.04;100.00;100403.06;5078948;28;19978;-78
2021/08/23 10:08:15;;;;;;;;;;;;;;;21.45;100.00;100404.75;5078823;28;19931;-78
2021/08/23 10:10:43;;;;;;;;;;;;;;;21.26;100.00;100403.84;5077434;28;20037;-78
2021/08/23 10:13:10;;;;;;;;;;;;;;;21.87;100.00;100403.09;5075644;28;19925;-78
2021/08/23 10:15:38;;;;;;;;;;;;;;;21.93;100.00;100399.13;5062690;28;19932;-78
2021/08/23 10:18:06;;;;;;;;;;;;;;;22.24;100.00;100394.16;5072623;28;20406;-78
2021/08/23 10:20:33;;;;;;;;;;;;;;;22.05;100.00;100403.13;5074406;28;20329;-78
2021/08/23 10:23:01;;;;;;;;;;;;;;;21.94;100.00;100403.59;5055975;28;20338;-78
2021/08/23 10:25:30;;;;;;;;;;;;;;;21.67;100.00;100400.59;5076491;28;19931;-78
2021/08/23 10:28:08;;;;;;;;;;;;;;;21.83;100.00;100408.09;5057270;28;19959;-78
2021/08/23 10:30:37;;;;;;;;;;;;;;;21.83;100.00;100408.91;5087910;28;19969;-78
2021/08/23 10:33:14;;;;;;;;;;;;;;;21.23;100.00;100407.63;5093903;28;19924;-77
2021/08/23 10:35:47;;;;;;;;;;;;;;;21.23;100.00;100405.56;5076242;28;19924;-78
2021/08/23 10:38:15;;;;;;;;;;;;;;;20.60;100.00;100415.63;5094286;28;19927;-77
2021/08/23 10:40:43;;;;;;;;;;;;;;;20.92;100.00;100407.53;5094170;28;19959;-77
2021/08/23 10:43:15;;;;;;;;;;;;;;;21.46;100.00;100407.13;5075958;28;20275;-77
2021/08/23 10:45:42;;;;;;;;;;;;;;;22.02;100.00;100402.03;5093926;28;19924;-77
2021/08/23 10:48:14;;;;;;;;;;;;;;;22.15;100.00;100408.38;5094084;28;19924;-77
2021/08/23 10:50:41;;;;;;;;;;;;;;;22.02;100.00;100407.72;5093873;28;19969;-77
2021/08/23 10:53:12;;;;;;;;;;;;;;;21.96;100.00;100401.03;5094156;28;19924;-77
2021/08/23 10:55:40;;;;;;;;;;;;;;;22.15;100.00;100408.38;5093914;28;20028;-77
2021/08/23 10:58:08;;;;;;;;;;;;;;;22.22;100.00;100410.91;5093747;28;20379;-78
2021/08/23 11:00:44;;;;;;;;;;;;;;;22.24;100.00;100402.72;5093898;28;19928;-77
2021/08/23 11:03:13;;;;;;;;;;;;;;;22.55;100.00;100399.78;5093881;28;19935;-78
2021/08/23 11:05:40;;;;;;;;;;;;;;;22.72;100.00;100395.34;5093719;28;19930;-78
2021/08/23 11:08:12;;;;;;;;;;;;;;;22.52;100.00;100392.97;5093756;28;19987;-77
2021/08/23 11:10:40;;;;;;;;;;;;;;;22.75;100.00;100394.44;5085388;28;20437;-77
2021/08/23 11:13:11;;;;;;;;;;;;;;;22.96;100.00;100393.47;5058348;28;19931;-77
2021/08/23 11:15:39;;;;;;;;;;;;;;;22.91;100.00;100392.03;5089599;28;19947;-77
2021/08/23 11:18:10;;;;;;;;;;;;;;;23.11;100.00;100392.31;5093626;28;19981;-77
2021/08/23 11:20:38;;;;;;;;;;;;;;;23.03;100.00;100387.44;5093293;28;19983;-77
2021/08/23 11:23:05;;;;;;;;;;;;;;;22.80;100.00;100388.88;5086850;28;19929;-77
2021/08/23 11:25:43;;;;;;;;;;;;;;;22.96;100.00;100396.31;5067599;28;19960;-77
2021/08/23 11:28:15;;;;;;;;;;;;;;;22.79;100.00;100395.84;5053013;28;20373;-78
2021/08/23 11:30:44;;;;;;;;;;;;;;;22.98;100.00;100391.72;5067419;28;19924;-77
2021/08/23 11:33:13;;;;;;;;;;;;;;;22.52;100.00;100398.66;5083582;28;19928;-77
2021/08/23 11:35:40;;;;;;;;;;;;;;;22.31;100.00;100393.09;5093374;28;19924;-77
2021/08/23 11:38:09;;;;;;;;;;;;;;;21.96;100.00;100401.03;5049312;28;20287;-77
2021/08/23 11:40:37;;;;;;;;;;;;;;;22.27;100.00;100393.22;5103860;28;19928;-77
2021/08/23 11:43:05;;;;;;;;;;;;;;;21.99;100.00;100388.72;5072612;28;19932;-77
2021/08/23 11:45:33;;;;;;;;;;;;;;;21.41;100.00;100390.66;5080208;28;19924;-76
2021/08/23 11:48:01;;;;;;;;;;;;;;;21.12;100.00;100388.13;5074439;28;19953;-76
2021/08/23 11:50:29;;;;;;;;;;;;;;;21.41;100.00;100393.50;5089314;28;20392;-76
2021/08/23 11:53:01;;;;;;;;;;;;;;;21.06;100.00;100389.19;5089761;28;19928;-76
2021/08/23 11:55:29;;;;;;;;;;;;;;;22.03;100.00;100395.06;5077553;28;20077;-77
2021/08/23 11:58:01;;;;;;;;;;;;;;;22.16;100.00;100397.81;5075795;28;19931;-77
2021/08/23 12:00:28;;;;;;;;;;;;;;;21.63;100.00;100399.94;5076299;28;19968;-77
2021/08/23 12:03:04;;;;;;;;;;;;;;;21.98;100.00;100404.22;5083718;28;19935;-77
2021/08/23 12:05:36;;;;;;;;;;;;;;;22.24;100.00;100382.78;5091661;28;19925;-77
2021/08/23 12:08:03;;;;;;;;;;;;;;;22.61;100.00;100389.34;5074604;28;20019;-77
2021/08/23 12:10:35;;;;;;;;;;;;;;;22.48;100.00;100385.81;5056002;28;19931;-77
2021/08/23 12:13:13;;;;;;;;;;;;;;;22.49;100.00;100396.72;5091068;28;19924;-77
2021/08/23 12:15:55;;;;;;;;;;;;;;;22.17;100.00;100393.69;5079432;28;19978;-77
2021/08/23 12:18:42;;;;;;;;;;;;;;;22.34;100.00;100397.84;5106986;28;19928;-77
2021/08/23 12:21:15;;;;;;;;;;;;;;;22.38;100.00;100399.28;5088868;28;20454;-77
2021/08/23 12:23:42;;;;;;;;;;;;;;;22.70;100.00;100400.75;5082920;28;19929;-77
2021/08/23 12:26:12;;;;;;;;;;;;;;;22.17;100.00;100410.75;5075338;28;19935;-77
2021/08/23 12:28:50;;;;;;;;;;;;;;;22.35;100.00;100414.44;5076525;28;19929;-77
2021/08/23 12:31:18;;;;;;;;;;;;;;;22.46;100.00;100406.22;5077998;28;20402;-77
2021/08/23 12:33:46;;;;;;;;;;;;;;;22.27;100.00;100410.31;5077204;28;19977;-77